Latest METARs, TAFs and NOTAMs for EGGW


---------------------------------------------------------------------------
	(OBSERVATIONS)
EGGW 241350Z AUTO 23016KT 9999 BKN030 OVC044 22/14 Q1012=
EGGW 241320Z AUTO 23012KT 9999 SCT029 BKN044 22/14 Q1013=
EGGW 241250Z AUTO 25014KT 220V280 9999 BKN029 OVC045 22/14 Q1013=
EGGW 241220Z AUTO 26015KT 9999 BKN029 22/13 Q1013=
EGGW 241150Z 24013KT 210V270 9999 BKN025 23/14 Q1013=
EGGW 241120Z 26015KT 9999 BKN026 21/13 Q1013=
---------------------------------------------------------------------------
	(FC)
Sorry, FC For EGGW Not Found
---------------------------------------------------------------------------
	(TERMINAL AREA FORECAST)
EGGW 241057Z 2412/2512 24013KT 9999 SCT025
    PROB30 TEMPO 2412/2419 24016G26KT
    BECMG 2505/2508 BKN010
    TEMPO 2507/2511 6000 -RADZ BKN006
    BECMG 2510/2512 SCT030
    PROB30 TEMPO 2511/2512 26016G26KT 8000 -SHRA=
---------------------------------------------------------------------------
	(NOTAMS)


EGGW A1143/17 AIRFIELD CLOSED TO ALL AIRCRAFT MOVEMENTS DUE WIP.
    0001-0530, 06 NOV 00:01 2017 UNTIL 16 DEC 05:30 2017. CREATED:
    31 MAR 15:26 2017

EGGW A1172/17 TWY BRAVO AND TWY ALPHA BETWEEN B1 TO A5 MAY AT
    TIMES BE REDUCED TO CODE C STRIP DUE WIP. DURING THIS PERIOD
    CODE D AND E AIRCRAFT WILL BE PROVIDED A FOLLOW ME WHEN REQUIRED.
    04 APR 09:00 2017 UNTIL 01 JUL 05:00 2017. CREATED: 04 APR
    09:29 2017

EGGW A1275/17 AD CLOSED TO ALL MOVEMENTS DUE WIP. 0001-0530,
    06 JAN 00:01 2018 UNTIL 14 JAN 05:30 2018. CREATED: 12 APR
    13:23 2017

EGGW A1396/17 AD CLOSED TO ALL AIRCRAFT MOVEMENTS DUE TO ANNUAL
    RUNWAY INSPECTION. 30 JUN 02:55 2017 UNTIL 30 JUN 04:00 2017.
    CREATED: 25 APR 14:10 2017

EGGW A1462/17 ILS RWY 08/26 MAYBE UNAVAILABLE DUE WIP. DURING
    WIP RWY 08/26 WILL BE DOWNGRADED TO VISUAL RWY ONLY. SUBJECT
    WEATHER. MON-FRI 0630-1600, 03 MAY 06:30 2017 UNTIL 31 JUL
    16:00 2017. CREATED: 02 MAY 11:38 2017

EGGW A1668/17 3 LIGHTS OUT OF SERVICE ON THIRD BAR OF RWY 26
    HIGH INTENSITY APPROACH LIGHTS. 20 MAY 00:01 2017 UNTIL 30
    JUN 23:59 2017. CREATED: 19 MAY 12:35 2017

EGGW A1710/17 RESCUE AND FIRE FIGHTING SERVICES AMEND LINE 4
    COLUMN 3 CATEGORY 8 AND 9 AVAILABLE BY PRIOR ARRANGEMENT
    TO READ. RFF CATEGORY 8 AND 9 BY PRIOR ARRANGEMENT. RFF CATEGORY
    9 PROVIDED WITH RFFS CATEGORY 8 UNDER REMISSION AD 2.6 REFERS.
    24 MAY 09:20 2017 UNTIL PERM. CREATED: 24 MAY 09:21 2017

EGGW A1776/17 COMPASS SWING BASE AND HOLDING POINT Q1 CLOSED
    DUE AIRPORT EXPANSION WORKS. 29 MAY 17:30 2017 UNTIL 26 AUG
    23:59 2017. CREATED: 29 MAY 17:27 2017

EGGW A1783/17 FOUR EXCAVATED PITS 2M BY 2M BY 1M EACH IN WORKSITE
    WEST OF TWY BRAVO. 30 MAY 23:59 2017 UNTIL 30 JUN 23:59 2017.
    CREATED: 30 MAY 14:29 2017

EGGW A1792/17 ANY UNPLANNED ACFT PLANNING TO TRANSIT THROUGH
    OR DEPART/ARRIVE FM SITES WI THE LONDON LUTON CTA/CTR BOUNDARIES
    MAY FIND THEIR SERVICE IMPACTED DUE TO CONTROLLER WORKLOAD
    ASSOCIATED WITH TESTING NEW ATC EQUIPMENT AT LONDON CONTROL
    (SWANWICK). AFFECTED CREW ARE ENCOURAGED TO CALL LONDON TERMINAL
    CONTROL (SWANWICK) (02380 401 110) BEFORE COMMENCING THEIR
    FLIGHT TO OFFER APPROPRIATE FLIGHT DETAILS IN ORDER TO REDUCE
    THE CHANCES OF REFUSAL /DELAY IN THE AIR. 31 MAY 15:30 2017
    UNTIL 31 JUL 23:59 2017. CREATED: 31 MAY 15:54 2017

EGGW A1805/17 STANDS 16, 17, 18, 19 REPOSITIONED AS FOLLOWS:
    16, 17, 19, 18 NORTH TO SOUTH REPOSITIONED TO 16, 17, 18,
    19 NORTH TO SOUTH. COORDINATES TO BE SURVEYED. UK AIP CHART
    AD 2-EGGW-2-2 REFERS. 01 JUN 12:44 2017 UNTIL PERM. CREATED:
    01 JUN 12:59 2017

EGGW A1905/17 SOUTH APRON EXTENDED. STANDS REPOSITIONED AS FOLLOWS:
    20, 21L, 21, 21R, 22, 23L, 23, 23R WEST TO EAST. COORDINATES
    TO BE SURVEYED. UK AIP CHART AD 2-EGGW-2-2 REFERS. 08 JUN
    08:35 2017 UNTIL PERM. CREATED: 08 JUN 08:36 2017

EGGW A1958/17 AMENDMENT TO TEXT AND CHARTS IN RELATION TO A CHANGE
    TO STAND MARKINGS ON THE NORTH APRON. NORTH APRON EXTENDED.
    STANDS REPOSITIONED AS FOLLOWS: 41R, 41, 41L, 42R 42, 42L
    WEST TO EAST. COORDINATES TO BE SURVEYED. UK AIP CHART AD
    2-EGGW-2-2 REFERS. 13 JUN 00:00 2017 UNTIL PERM. CREATED:
    12 JUN 09:20 2017

EGGW A2010/17 LUTON IS CARRYING OUT A TRIAL TO DETERMINE THE
    NOISE BENEFITS AND OPERATIONAL IMPACTS OF DELAYED LANDING
    GEAR DEPLOYMENT. ARRIVALS ARE REQUESTED TO DEPLOY THEIR LANDING
    GEAR AS LATE AS POSSIBLE, IDEALLY 5NM FROM TOUCHDOWN SUBJECT
    TO WEATHER AND SAFETY REQUIREMENTS. 19 JUN 00:01 2017 UNTIL
    31 JUL 23:59 2017. CREATED: 16 JUN 11:01 2017

EGGW A2069/17 LIT MOBILE CRANE OPERATING AT 515154N 0002424W.
    247 DEG MAG, 2842M FM LUTON ARP. MAX HEIGHT 215FT AGL, 736FT
    AMSL. CRANE WILL BE LOWERED AT NIGHT AND DURING LVP. 24 JUN
    07:00 2017 UNTIL 25 JUN 16:00 2017. CREATED: 21 JUN 15:25
    2017

EGGW H3341/17 FIREWORK DISPLAY WI 0.5NM RADIUS 515117N 0002352W
    (LUTON HOO PARK, BEDFORDSHIRE). FOR INFO 07973 267841. 17-06-0400/AS6.
    SFC - 1200FT AMSL, 24 JUN 21:30 2017 UNTIL 24 JUN 22:00 2017.
    CREATED: 23 JUN 11:28 2017

---------------------------------------------------------------------------